createdAt,value
2022-09-23T00:03:00.072Z,15.80
2022-09-23T00:06:43.343Z,15.80
2022-09-23T00:10:28.078Z,15.80
2022-09-23T00:14:10.813Z,15.80
2022-09-23T00:17:53.493Z,15.80
2022-09-23T00:21:36.078Z,15.80
2022-09-23T00:25:18.308Z,15.80
2022-09-23T00:29:01.162Z,15.80
2022-09-23T00:32:43.197Z,15.80
2022-09-23T00:36:26.569Z,15.80
2022-09-23T00:40:09.326Z,15.80
2022-09-23T00:44:00.382Z,15.80
2022-09-23T00:47:55.176Z,15.90
2022-09-23T00:51:41.401Z,15.90
2022-09-23T00:55:30.071Z,15.80
2022-09-23T00:59:13.312Z,15.80
2022-09-23T01:02:55.655Z,15.90
2022-09-23T01:06:37.775Z,15.90
2022-09-23T01:10:24.238Z,15.80
2022-09-23T01:14:32.250Z,15.80
2022-09-23T01:18:29.492Z,15.80
2022-09-23T01:22:17.327Z,15.90
2022-09-23T01:26:14.584Z,15.80
2022-09-23T01:30:08.865Z,15.80
2022-09-23T01:34:07.567Z,15.80
2022-09-23T01:37:58.757Z,15.80
2022-09-23T01:41:56.168Z,15.80
2022-09-23T01:45:43.786Z,15.80
2022-09-23T01:49:38.041Z,15.80
2022-09-23T01:53:42.729Z,15.80
2022-09-23T01:57:34.245Z,15.70
2022-09-23T02:01:23.488Z,15.70
2022-09-23T02:05:18.591Z,15.70
2022-09-23T02:09:06.522Z,15.80
2022-09-23T02:12:52.326Z,15.80
2022-09-23T02:16:47.837Z,15.70
2022-09-23T02:20:34.658Z,15.70
2022-09-23T02:24:30.337Z,15.70
2022-09-23T02:28:40.947Z,15.60
2022-09-23T02:32:34.940Z,15.60
2022-09-23T02:36:30.268Z,15.60
2022-09-23T02:40:24.057Z,15.60
2022-09-23T02:44:16.806Z,15.50
2022-09-23T02:48:05.680Z,15.50
2022-09-23T02:51:47.893Z,15.40
2022-09-23T02:55:32.549Z,15.50
2022-09-23T02:59:19.729Z,15.50
2022-09-23T03:03:39.766Z,15.50
2022-09-23T03:07:41.805Z,15.50
2022-09-23T03:11:24.904Z,15.60
2022-09-23T03:15:23.329Z,15.50
2022-09-23T03:19:25.571Z,15.60
2022-09-23T03:23:11.033Z,15.70
2022-09-23T03:26:55.098Z,15.70
2022-09-23T03:30:37.923Z,15.70
2022-09-23T03:34:28.061Z,15.70
2022-09-23T03:38:17.487Z,15.70
2022-09-23T03:42:38.417Z,15.70
2022-09-23T03:46:20.691Z,15.80
2022-09-23T03:50:02.831Z,15.80
2022-09-23T03:53:44.904Z,15.80
2022-09-23T03:57:27.026Z,15.80
2022-09-23T04:01:09.662Z,15.80
2022-09-23T04:04:51.817Z,15.70
2022-09-23T04:08:34.044Z,15.70
2022-09-23T04:12:17.087Z,15.70
2022-09-23T04:15:59.396Z,15.70
2022-09-23T04:19:41.480Z,15.70
2022-09-23T04:23:25.133Z,15.80
2022-09-23T04:27:07.525Z,15.80
2022-09-23T04:30:57.945Z,15.90
2022-09-23T04:34:39.906Z,16.00
2022-09-23T04:38:22.516Z,16.00
2022-09-23T04:42:04.721Z,16.00
2022-09-23T04:45:46.993Z,16.00
2022-09-23T04:49:33.493Z,16.10
2022-09-23T04:53:16.583Z,16.10
2022-09-23T04:56:58.891Z,16.10
2022-09-23T05:00:41.135Z,16.10
2022-09-23T05:04:23.362Z,16.10
2022-09-23T05:08:47.403Z,16.10
2022-09-23T05:12:29.513Z,16.10
2022-09-23T05:16:12.743Z,16.00
2022-09-23T05:19:54.900Z,16.00
2022-09-23T05:23:38.239Z,16.00
2022-09-23T05:27:21.084Z,16.00
2022-09-23T05:31:19.607Z,16.00
2022-09-23T05:35:02.081Z,16.00
2022-09-23T05:38:44.625Z,16.00
2022-09-23T05:42:26.836Z,15.90
2022-09-23T05:46:16.578Z,15.90
2022-09-23T05:50:00.354Z,15.90
2022-09-23T05:53:45.908Z,15.90
2022-09-23T05:57:28.096Z,15.90
2022-09-23T06:01:15.449Z,15.80
2022-09-23T06:04:57.856Z,15.80
2022-09-23T06:08:40.409Z,15.70
2022-09-23T06:12:22.736Z,15.70
2022-09-23T06:16:24.210Z,15.70
2022-09-23T06:20:07.566Z,15.70
2022-09-23T06:23:54.625Z,15.70
2022-09-23T06:27:39.099Z,15.70
2022-09-23T06:31:21.148Z,15.70
2022-09-23T06:35:03.190Z,15.70
2022-09-23T06:43:48.787Z,15.70
2022-09-23T06:47:30.919Z,15.70
2022-09-23T06:51:23.049Z,15.70
2022-09-23T06:55:05.651Z,15.70
2022-09-23T06:58:47.835Z,15.70
2022-09-23T07:02:30.280Z,15.70
2022-09-23T07:06:13.829Z,15.70
2022-09-23T07:09:59.666Z,15.70
2022-09-23T07:13:42.971Z,15.70
2022-09-23T07:17:25.815Z,15.70
2022-09-23T07:21:09.958Z,15.70
2022-09-23T07:24:54.414Z,15.80
2022-09-23T07:28:40.099Z,15.80
2022-09-23T07:32:23.561Z,15.90
2022-09-23T07:36:18.451Z,15.90
2022-09-23T07:40:00.692Z,16.00
2022-09-23T07:43:44.562Z,16.10
2022-09-23T07:47:26.772Z,16.20
2022-09-23T07:51:11.846Z,16.20
2022-09-23T07:54:54.455Z,16.30
2022-09-23T07:58:36.614Z,16.30
2022-09-23T08:02:19.333Z,16.50
2022-09-23T08:06:12.917Z,16.70
2022-09-23T08:09:54.992Z,16.90
2022-09-23T08:13:37.940Z,17.40
2022-09-23T08:17:19.960Z,17.80
2022-09-23T08:21:02.308Z,18.00
2022-09-23T08:24:44.308Z,18.20
2022-09-23T08:28:27.074Z,18.40
2022-09-23T08:32:09.612Z,18.60
2022-09-23T08:35:52.918Z,18.70
2022-09-23T08:39:35.022Z,19.00
2022-09-23T08:43:30.066Z,19.20
2022-09-23T08:47:23.921Z,19.50
2022-09-23T08:51:11.633Z,20.00
2022-09-23T08:54:55.593Z,20.40
2022-09-23T08:58:44.145Z,20.90
2022-09-23T09:02:26.292Z,21.40
2022-09-23T09:06:15.453Z,21.70
2022-09-23T09:10:21.209Z,22.00
2022-09-23T09:14:13.345Z,21.90
2022-09-23T09:17:59.498Z,22.10
2022-09-23T09:21:43.769Z,23.60
2022-09-23T09:25:33.470Z,25.50
2022-09-23T09:29:35.059Z,26.90
2022-09-23T09:33:21.369Z,27.30
2022-09-23T09:37:16.066Z,26.30
2022-09-23T09:41:09.416Z,25.10
2022-09-23T09:45:03.176Z,24.10
2022-09-23T09:48:59.993Z,23.80
2022-09-23T09:52:43.642Z,23.90
2022-09-23T09:56:33.262Z,23.90
2022-09-23T10:00:19.037Z,23.60
2022-09-23T10:04:19.873Z,24.40
2022-09-23T10:08:37.602Z,25.80
2022-09-23T10:12:21.982Z,25.90
2022-09-23T10:16:04.894Z,25.20
2022-09-23T10:19:50.699Z,24.70
2022-09-23T10:23:33.587Z,24.20
2022-09-23T10:27:17.189Z,23.80
2022-09-23T10:31:11.333Z,23.30
2022-09-23T10:35:13.790Z,22.70
2022-09-23T10:39:22.979Z,22.20
2022-09-23T10:43:38.982Z,22.00
2022-09-23T10:47:59.421Z,22.90
2022-09-23T10:51:53.644Z,24.30
2022-09-23T10:55:54.969Z,26.60
2022-09-23T10:59:47.740Z,27.80
2022-09-23T11:04:00.466Z,27.60
2022-09-23T11:08:18.439Z,26.70
2022-09-23T11:12:00.410Z,27.80
2022-09-23T11:15:45.353Z,28.60
2022-09-23T11:19:45.530Z,27.80
2022-09-23T11:23:47.292Z,27.20
2022-09-23T11:28:01.696Z,27.20
2022-09-23T11:32:21.459Z,27.30
2022-09-23T11:36:24.933Z,26.50
2022-09-23T11:40:43.849Z,26.20
2022-09-23T11:44:41.493Z,25.50
2022-09-23T11:48:30.382Z,25.70
2022-09-23T11:52:22.531Z,27.70
2022-09-23T11:56:36.774Z,29.20
2022-09-23T12:00:25.442Z,29.70
2022-09-23T12:04:31.548Z,30.20
2022-09-23T12:08:22.796Z,30.90
2022-09-23T12:12:16.064Z,32.10
2022-09-23T12:16:18.498Z,31.50
2022-09-23T12:20:36.464Z,29.70
2022-09-23T12:24:31.627Z,27.70
2022-09-23T12:28:50.011Z,26.40
2022-09-23T12:32:35.387Z,27.10
2022-09-23T12:36:26.963Z,28.80
2022-09-23T12:40:45.159Z,28.60
2022-09-23T12:44:41.314Z,27.40
2022-09-23T12:48:44.249Z,26.40
2022-09-23T12:52:29.676Z,27.00
2022-09-23T12:56:34.953Z,28.20
2022-09-23T13:00:24.626Z,28.30
2022-09-23T13:04:25.241Z,27.10
2022-09-23T13:08:18.459Z,25.90
2022-09-23T13:12:17.332Z,24.90
2022-09-23T13:16:19.898Z,24.40
2022-09-23T13:20:26.491Z,24.00
2022-09-23T13:24:47.909Z,23.80
2022-09-23T13:28:30.414Z,23.60
2022-09-23T13:32:17.887Z,23.30
2022-09-23T13:36:04.547Z,23.20
2022-09-23T13:39:46.705Z,23.20
2022-09-23T13:44:01.010Z,23.20
2022-09-23T13:47:45.490Z,23.20
2022-09-23T13:51:31.819Z,23.30
2022-09-23T13:55:37.880Z,23.40
2022-09-23T13:59:27.341Z,23.50
2022-09-23T14:03:22.138Z,23.60
2022-09-23T14:07:05.013Z,23.50
2022-09-23T14:10:47.188Z,23.40
2022-09-23T14:14:30.756Z,23.40
2022-09-23T14:18:27.978Z,23.30
2022-09-23T14:22:24.315Z,23.20
2022-09-23T14:26:06.394Z,23.00
2022-09-23T14:29:49.861Z,22.70
2022-09-23T14:33:34.284Z,22.50
2022-09-23T14:37:37.741Z,22.20
2022-09-23T14:41:25.848Z,22.10
2022-09-23T14:45:14.221Z,21.90
2022-09-23T14:49:17.574Z,21.80
2022-09-23T14:52:59.692Z,21.90
2022-09-23T14:56:42.414Z,21.80
2022-09-23T15:00:24.492Z,21.90
2022-09-23T15:04:14.092Z,22.00
2022-09-23T15:07:58.124Z,22.10
2022-09-23T15:11:40.911Z,22.10
2022-09-23T15:15:28.476Z,22.20
2022-09-23T15:19:16.598Z,22.20
2022-09-23T15:22:58.616Z,22.20
2022-09-23T15:26:49.346Z,22.20
2022-09-23T15:30:32.253Z,22.20
2022-09-23T15:34:14.308Z,22.10
2022-09-23T15:37:59.109Z,22.00
2022-09-23T15:45:36.481Z,21.80
2022-09-23T15:49:41.826Z,21.70
2022-09-23T15:53:26.538Z,21.70
2022-09-23T15:57:08.559Z,21.70
2022-09-23T16:00:56.329Z,21.70
2022-09-23T16:04:39.018Z,21.50
2022-09-23T16:08:23.967Z,21.40
2022-09-23T16:12:09.424Z,21.30
2022-09-23T16:15:51.526Z,21.20
2022-09-23T16:19:34.375Z,21.10
2022-09-23T16:23:35.987Z,20.90
2022-09-23T16:27:19.366Z,20.90
2022-09-23T16:31:01.371Z,20.90
2022-09-23T16:34:45.331Z,20.80
2022-09-23T16:38:29.179Z,20.70
2022-09-23T16:42:11.450Z,20.70
2022-09-23T16:45:54.397Z,20.60
2022-09-23T16:49:36.590Z,20.40
2022-09-23T16:53:18.685Z,20.20
2022-09-23T16:57:00.727Z,20.00
2022-09-23T17:01:01.257Z,19.90
2022-09-23T17:04:43.296Z,19.70
2022-09-23T17:08:25.667Z,19.70
2022-09-23T17:12:33.718Z,19.40
2022-09-23T17:16:28.295Z,19.20
2022-09-23T17:20:10.762Z,19.10
2022-09-23T17:23:54.664Z,18.90
2022-09-23T17:27:37.935Z,18.70
2022-09-23T17:31:22.306Z,18.70
2022-09-23T17:35:04.803Z,18.50
2022-09-23T17:38:48.421Z,18.30
2022-09-23T17:42:30.941Z,18.20
2022-09-23T17:46:18.466Z,18.00
2022-09-23T17:50:00.567Z,17.80
2022-09-23T17:53:45.545Z,17.60
2022-09-23T17:57:27.564Z,17.40
2022-09-23T18:01:11.704Z,17.20
2022-09-23T18:04:54.001Z,17.10
2022-09-23T18:08:36.368Z,16.90
2022-09-23T18:12:18.439Z,16.70
2022-09-23T18:16:02.841Z,16.50
2022-09-23T18:19:49.310Z,16.30
2022-09-23T18:23:31.495Z,16.20
2022-09-23T18:27:13.640Z,16.00
2022-09-23T18:30:57.718Z,15.90
2022-09-23T18:34:39.935Z,15.70
2022-09-23T18:38:23.951Z,15.60
2022-09-23T18:42:06.402Z,15.50
2022-09-23T18:46:02.763Z,15.40
2022-09-23T18:50:03.645Z,15.20
2022-09-23T18:53:48.842Z,15.10
2022-09-23T18:57:31.061Z,15.00
2022-09-23T19:01:13.544Z,14.90
2022-09-23T19:04:56.280Z,14.80
2022-09-23T19:08:39.206Z,14.80
2022-09-23T19:12:22.676Z,14.70
2022-09-23T19:16:15.981Z,14.70
2022-09-23T19:19:58.928Z,14.50
2022-09-23T19:23:47.691Z,14.50
2022-09-23T19:27:29.739Z,14.40
2022-09-23T19:31:22.587Z,14.30
2022-09-23T19:35:04.948Z,14.20
2022-09-23T19:38:47.109Z,14.20
2022-09-23T19:42:30.209Z,14.10
2022-09-23T19:46:12.415Z,14.00
2022-09-23T19:49:54.517Z,13.90
2022-09-23T19:53:37.045Z,13.80
2022-09-23T19:57:19.858Z,13.80
2022-09-23T20:01:07.769Z,13.70
2022-09-23T20:04:51.496Z,13.50
2022-09-23T20:08:37.237Z,13.30
2022-09-23T20:12:19.384Z,13.20
2022-09-23T20:16:01.707Z,13.00
2022-09-23T20:19:44.753Z,12.80
2022-09-23T20:23:28.512Z,12.70
2022-09-23T20:27:10.998Z,12.60
2022-09-23T20:30:59.149Z,12.50
2022-09-23T20:34:45.015Z,12.30
2022-09-23T20:38:27.964Z,12.20
2022-09-23T20:42:10.350Z,12.10
2022-09-23T20:45:54.453Z,12.00
2022-09-23T20:49:37.969Z,11.90
2022-09-23T20:53:22.907Z,11.80
2022-09-23T20:57:13.031Z,11.80
2022-09-23T21:01:02.080Z,11.70
2022-09-23T21:04:44.641Z,11.70
2022-09-23T21:08:27.464Z,11.60
2022-09-23T21:12:09.682Z,11.60
2022-09-23T21:15:54.271Z,11.50
2022-09-23T21:19:38.199Z,11.40
2022-09-23T21:23:21.966Z,11.20
2022-09-23T21:27:04.792Z,11.20
2022-09-23T21:30:51.686Z,11.00
2022-09-23T21:34:35.222Z,10.90
2022-09-23T21:38:17.327Z,10.80
2022-09-23T21:41:59.543Z,10.70
2022-09-23T21:45:41.988Z,10.80
2022-09-23T21:49:25.680Z,10.70
2022-09-23T21:53:09.039Z,10.70
2022-09-23T21:56:51.211Z,10.60
2022-09-23T22:00:33.454Z,10.60
2022-09-23T22:04:18.548Z,10.50
2022-09-23T22:08:00.822Z,10.50
2022-09-23T22:12:02.399Z,10.40
2022-09-23T22:15:45.178Z,10.30
2022-09-23T22:19:35.918Z,10.20
2022-09-23T22:23:21.707Z,10.20
2022-09-23T22:27:03.839Z,10.20
2022-09-23T22:31:12.464Z,10.20
2022-09-23T22:34:54.705Z,10.40
2022-09-23T22:38:37.238Z,10.40
2022-09-23T22:42:22.126Z,10.50
2022-09-23T22:46:04.490Z,10.60
2022-09-23T22:49:47.297Z,10.60
2022-09-23T22:53:29.650Z,10.60
2022-09-23T22:57:11.926Z,10.60
2022-09-23T23:00:57.744Z,10.60
2022-09-23T23:04:39.827Z,10.50
2022-09-23T23:08:22.100Z,10.50
2022-09-23T23:12:04.417Z,10.50
2022-09-23T23:15:46.801Z,10.40
2022-09-23T23:24:25.257Z,10.30
2022-09-23T23:28:07.391Z,10.20
2022-09-23T23:31:49.583Z,10.20
2022-09-23T23:35:31.835Z,10.20
2022-09-23T23:39:14.698Z,10.20
2022-09-23T23:42:57.087Z,10.10
2022-09-23T23:46:39.555Z,10.20
2022-09-23T23:50:21.774Z,10.10
2022-09-23T23:54:04.312Z,10.10
2022-09-23T23:57:46.442Z,10.20
